Time;durP1;ratioP1;P1;durP2;ratioP2;P2;SDS_P1;SDS_P2;PMS_P1;PMS_P2;Temp;Humidity;BMP_temperature;BMP_pressure;BME280_temperature;BME280_humidity;BME280_pressure;Samples;Min_cycle;Max_cycle;Signal;HPM_P1;HPM_P2
2023/01/10 00:00:33;;;;;;;0.80;0.30;;;;;;;;;;104798;1257;59189;-45
2023/01/10 00:03:01;;;;;;;0.70;0.40;;;;;;;;;;105125;1258;61341;-45
2023/01/10 00:05:27;;;;;;;5.40;0.50;;;;;;;;;;105523;1263;59167;-44
2023/01/10 00:07:54;;;;;;;4.40;0.40;;;;;;;;;;105005;1263;61906;-46
2023/01/10 00:10:21;;;;;;;0.50;0.30;;;;;;;;;;104868;1260;138789;-48
2023/01/10 00:15:34;;;;;;;1.80;0.40;;;;;;;;;;104965;1255;61667;-44
2023/01/10 00:18:01;;;;;;;4.90;0.40;;;;;;;;;;105093;1256;59856;-46
2023/01/10 00:20:27;;;;;;;0.70;0.40;;;;;;;;;;104682;1257;61911;-45
2023/01/10 00:22:54;;;;;;;1.50;0.50;;;;;;;;;;104943;1261;59734;-45
2023/01/10 00:25:21;;;;;;;4.00;0.40;;;;;;;;;;105004;1263;59696;-46
2023/01/10 00:28:03;;;;;;;2.60;0.40;;;;;;;;;;105020;1263;60967;-46
2023/01/10 00:30:32;;;;;;;3.80;0.40;;;;;;;;;;104928;1256;59519;-44
2023/01/10 00:33:01;;;;;;;3.40;0.60;;;;;;;;;;104822;1260;60906;-45
2023/01/10 00:35:28;;;;;;;3.10;0.50;;;;;;;;;;104652;1257;59896;-47
2023/01/10 00:38:00;;;;;;;1.30;0.40;;;;;;;;;;104834;1255;60247;-46
2023/01/10 00:40:26;;;;;;;4.90;0.50;;;;;;;;;;104718;1261;61476;-45
2023/01/10 00:45:39;;;;;;;1.30;0.40;;;;;;;;;;104708;1258;61903;-44
2023/01/10 00:48:05;;;;;;;3.00;0.50;;;;;;;;;;104858;1256;59622;-44
2023/01/10 00:50:32;;;;;;;2.70;0.50;;;;;;;;;;104789;1257;60218;-46
2023/01/10 00:52:59;;;;;;;2.70;0.50;;;;;;;;;;104849;1257;62419;-46
2023/01/10 00:55:25;;;;;;;5.20;0.50;;;;;;;;;;104828;1257;60125;-44
2023/01/10 00:57:52;;;;;;;0.80;0.40;;;;;;;;;;104832;1257;61815;-47
2023/01/10 01:00:19;;;;;;;5.40;0.50;;;;;;;;;;104901;1257;59839;-41
2023/01/10 01:02:47;;;;;;;2.10;0.40;;;;;;;;;;104751;1257;59663;-45
2023/01/10 01:05:13;;;;;;;7.60;0.60;;;;;;;;;;104885;1257;62222;-44
2023/01/10 01:07:40;;;;;;;2.10;0.50;;;;;;;;;;104828;1257;59781;-46
2023/01/10 01:10:25;;;;;;;2.40;0.50;;;;;;;;;;104823;1257;61210;-46
2023/01/10 01:12:59;;;;;;;3.20;0.50;;;;;;;;;;105210;1258;59700;-46
2023/01/10 01:15:26;;;;;;;3.10;0.50;;;;;;;;;;104747;1256;61440;-45
2023/01/10 01:17:52;;;;;;;5.80;0.60;;;;;;;;;;104900;1262;62496;-45
2023/01/10 01:20:20;;;;;;;1.70;0.50;;;;;;;;;;104769;1259;59688;-45
2023/01/10 01:22:47;;;;;;;8.00;0.50;;;;;;;;;;108947;1256;60889;-45
2023/01/10 01:25:14;;;;;;;4.80;0.50;;;;;;;;;;106986;1256;58376;-47
2023/01/10 01:27:40;;;;;;;5.70;0.40;;;;;;;;;;108863;1256;57470;-48
2023/01/10 01:30:07;;;;;;;3.20;0.40;;;;;;;;;;108935;1257;61527;-47
2023/01/10 01:32:34;;;;;;;3.30;0.50;;;;;;;;;;108843;1256;57974;-46
2023/01/10 01:35:01;;;;;;;2.40;0.50;;;;;;;;;;108900;1257;61920;-48
2023/01/10 01:37:27;;;;;;;2.30;0.50;;;;;;;;;;108916;1257;57715;-47
2023/01/10 01:39:54;;;;;;;2.60;0.50;;;;;;;;;;108896;1257;57653;-47
2023/01/10 01:42:25;;;;;;;3.50;0.50;;;;;;;;;;108945;1256;62368;-46
2023/01/10 01:45:12;;;;;;;3.00;0.50;;;;;;;;;;108955;1255;58323;-46
2023/01/10 01:47:42;;;;;;;7.40;0.50;;;;;;;;;;108820;1257;61961;-46
2023/01/10 01:50:13;;;;;;;5.60;0.50;;;;;;;;;;108892;1256;57449;-48
2023/01/10 01:52:40;;;;;;;2.80;0.50;;;;;;;;;;106370;1259;59136;-44
2023/01/10 01:55:07;;;;;;;4.70;0.60;;;;;;;;;;104876;1258;61144;-45
2023/01/10 01:57:34;;;;;;;1.70;0.50;;;;;;;;;;105068;1257;59647;-45
2023/01/10 02:00:01;;;;;;;6.10;0.80;;;;;;;;;;105017;1260;60916;-47
2023/01/10 02:02:38;;;;;;;7.90;0.70;;;;;;;;;;104503;1260;59805;-45
2023/01/10 02:05:09;;;;;;;5.00;0.60;;;;;;;;;;108870;1257;57528;-47
2023/01/10 02:07:36;;;;;;;2.50;0.60;;;;;;;;;;108861;1257;61586;-46
2023/01/10 02:10:05;;;;;;;5.10;0.70;;;;;;;;;;108891;1256;57444;-46
2023/01/10 02:12:32;;;;;;;11.70;1.10;;;;;;;;;;105256;1257;61867;-46
2023/01/10 02:14:58;;;;;;;2.80;0.50;;;;;;;;;;104886;1258;60407;-45
2023/01/10 02:17:25;;;;;;;4.10;0.70;;;;;;;;;;104987;1257;59708;-44
2023/01/10 02:19:56;;;;;;;7.60;0.70;;;;;;;;;;104818;1256;62407;-46
2023/01/10 02:22:29;;;;;;;3.60;0.60;;;;;;;;;;104876;1263;59708;-43
2023/01/10 02:25:02;;;;;;;8.30;0.60;;;;;;;;;;104923;1258;61971;-46
2023/01/10 02:27:36;;;;;;;5.20;0.60;;;;;;;;;;104965;1257;60212;-47
2023/01/10 02:30:15;;;;;;;2.00;0.40;;;;;;;;;;104813;1258;59718;-43
2023/01/10 02:33:00;;;;;;;6.10;0.60;;;;;;;;;;104813;1258;62335;-47
2023/01/10 02:35:31;;;;;;;5.60;0.50;;;;;;;;;;108850;1256;58372;-47
2023/01/10 02:37:59;;;;;;;9.00;0.60;;;;;;;;;;104993;1257;60597;-45
2023/01/10 02:40:32;;;;;;;9.30;0.60;;;;;;;;;;104801;1257;59656;-45
2023/01/10 02:43:17;;;;;;;7.20;0.60;;;;;;;;;;104735;1257;59882;-46
2023/01/10 02:45:58;;;;;;;8.10;0.70;;;;;;;;;;104817;1263;61422;-46
2023/01/10 02:48:24;;;;;;;4.50;0.40;;;;;;;;;;105143;1257;59660;-45
2023/01/10 02:51:11;;;;;;;7.20;0.70;;;;;;;;;;105028;1257;61856;-48
2023/01/10 02:53:39;;;;;;;1.90;0.60;;;;;;;;;;104779;1260;59730;-47
2023/01/10 02:56:08;;;;;;;5.80;0.80;;;;;;;;;;105082;1256;58915;-47
2023/01/10 02:58:38;;;;;;;4.10;0.60;;;;;;;;;;105041;1254;61430;-47
2023/01/10 03:01:07;;;;;;;3.50;0.60;;;;;;;;;;105123;1256;59643;-46
2023/01/10 03:03:35;;;;;;;5.50;0.60;;;;;;;;;;105579;1257;61886;-44
2023/01/10 03:06:06;;;;;;;3.80;0.60;;;;;;;;;;104996;1261;60198;-48
2023/01/10 03:08:34;;;;;;;3.10;0.60;;;;;;;;;;106206;1254;59547;-47
2023/01/10 03:11:02;;;;;;;6.70;0.70;;;;;;;;;;104966;1254;62349;-46
2023/01/10 03:13:34;;;;;;;4.60;0.50;;;;;;;;;;104933;1253;59589;-47
2023/01/10 03:16:01;;;;;;;2.50;0.60;;;;;;;;;;105831;1258;61622;-45
2023/01/10 03:18:47;;;;;;;2.40;0.60;;;;;;;;;;105137;1257;59638;-47
2023/01/10 03:21:14;;;;;;;9.30;1.10;;;;;;;;;;105022;1253;59820;-47
2023/01/10 03:23:41;;;;;;;9.10;1.30;;;;;;;;;;104967;1257;62504;-46
2023/01/10 03:26:08;;;;;;;6.40;0.80;;;;;;;;;;104942;1255;59634;-47
2023/01/10 03:28:43;;;;;;;5.30;1.40;;;;;;;;;;104978;1254;60870;-47
2023/01/10 03:31:12;;;;;;;7.30;1.00;;;;;;;;;;104773;1254;59618;-46
2023/01/10 03:33:39;;;;;;;3.90;0.80;;;;;;;;;;105441;1255;59625;-45
2023/01/10 03:36:29;;;;;;;1.50;0.60;;;;;;;;;;105135;1256;62452;-48
2023/01/10 03:38:57;;;;;;;4.20;0.60;;;;;;;;;;104821;1259;59538;-48
2023/01/10 03:41:40;;;;;;;2.90;0.70;;;;;;;;;;105334;1253;61780;-46
2023/01/10 03:47:02;;;;;;;5.30;0.90;;;;;;;;;;104999;1253;59801;-46
2023/01/10 03:49:29;;;;;;;7.00;0.80;;;;;;;;;;105802;1254;61075;-47
2023/01/10 03:51:55;;;;;;;4.60;0.70;;;;;;;;;;104972;1254;59740;-47
2023/01/10 03:54:22;;;;;;;4.40;0.90;;;;;;;;;;105091;1259;61924;-48
2023/01/10 03:56:49;;;;;;;9.80;1.00;;;;;;;;;;104907;1253;59535;-46
2023/01/10 03:59:17;;;;;;;1.80;0.70;;;;;;;;;;104974;1257;59674;-49
2023/01/10 04:01:43;;;;;;;5.50;1.10;;;;;;;;;;106081;1254;61130;-48
2023/01/10 04:04:10;;;;;;;2.60;0.60;;;;;;;;;;105065;1253;59728;-47
2023/01/10 04:06:37;;;;;;;11.40;1.70;;;;;;;;;;105018;1254;61750;-47
2023/01/10 04:09:04;;;;;;;7.00;0.60;;;;;;;;;;104975;1254;60557;-48
2023/01/10 04:11:31;;;;;;;4.20;1.60;;;;;;;;;;105082;1253;60501;-46
2023/01/10 04:13:58;;;;;;;6.20;1.00;;;;;;;;;;104946;1256;63297;-47
2023/01/10 04:16:24;;;;;;;4.90;0.90;;;;;;;;;;105095;1256;60498;-47
2023/01/10 04:18:51;;;;;;;4.10;1.50;;;;;;;;;;105090;1258;61929;-47
2023/01/10 04:21:18;;;;;;;3.20;0.80;;;;;;;;;;105003;1253;60523;-47
2023/01/10 04:23:44;;;;;;;7.80;1.00;;;;;;;;;;105048;1253;60427;-47
2023/01/10 04:26:11;;;;;;;7.50;0.80;;;;;;;;;;105101;1253;62178;-47
2023/01/10 04:28:38;;;;;;;6.50;1.00;;;;;;;;;;105023;1254;60529;-47
2023/01/10 04:31:04;;;;;;;3.20;0.80;;;;;;;;;;105063;1256;60635;-46
2023/01/10 04:33:31;;;;;;;5.30;0.80;;;;;;;;;;104866;1254;61001;-45
2023/01/10 04:35:58;;;;;;;6.80;1.10;;;;;;;;;;104968;1253;60380;-46
2023/01/10 04:38:24;;;;;;;2.50;0.70;;;;;;;;;;104997;1254;62001;-45
2023/01/10 04:40:54;;;;;;;2.00;0.80;;;;;;;;;;105013;1257;60557;-46
2023/01/10 04:43:21;;;;;;;11.80;1.00;;;;;;;;;;105020;1254;60817;-47
2023/01/10 04:45:48;;;;;;;7.90;0.90;;;;;;;;;;104972;1254;60441;-47
2023/01/10 04:48:15;;;;;;;4.10;0.80;;;;;;;;;;104924;1254;60498;-45
2023/01/10 04:50:42;;;;;;;3.60;0.60;;;;;;;;;;104792;1253;63548;-46
2023/01/10 04:53:08;;;;;;;5.70;0.80;;;;;;;;;;109243;1253;59236;-47
2023/01/10 04:55:35;;;;;;;10.00;1.40;;;;;;;;;;109273;1253;61865;-48
2023/01/10 04:58:01;;;;;;;2.80;0.70;;;;;;;;;;109209;1253;58299;-47
2023/01/10 05:00:29;;;;;;;8.30;0.70;;;;;;;;;;108380;1253;58415;-47
2023/01/10 05:02:56;;;;;;;4.80;0.70;;;;;;;;;;104863;1252;62391;-46
2023/01/10 05:05:23;;;;;;;3.40;0.80;;;;;;;;;;105118;1253;60533;-45
2023/01/10 05:07:49;;;;;;;4.90;0.80;;;;;;;;;;104925;1257;62156;-46
2023/01/10 05:10:16;;;;;;;4.30;0.80;;;;;;;;;;104795;1254;60422;-46
2023/01/10 05:12:45;;;;;;;7.20;1.30;;;;;;;;;;104952;1257;60431;-46
2023/01/10 05:15:12;;;;;;;4.20;1.00;;;;;;;;;;104929;1252;61806;-44
2023/01/10 05:17:39;;;;;;;6.70;0.80;;;;;;;;;;109164;1252;58635;-45
2023/01/10 05:20:06;;;;;;;4.30;0.90;;;;;;;;;;109138;1253;60761;-48
2023/01/10 05:22:32;;;;;;;5.40;0.80;;;;;;;;;;109205;1253;58501;-45
2023/01/10 05:24:59;;;;;;;6.90;0.90;;;;;;;;;;109114;1253;58514;-45
2023/01/10 05:27:26;;;;;;;5.60;0.70;;;;;;;;;;106299;1252;62927;-43
2023/01/10 05:29:52;;;;;;;11.00;1.60;;;;;;;;;;105257;1254;60735;-47
2023/01/10 05:32:19;;;;;;;10.10;1.80;;;;;;;;;;105041;1254;62382;-43
2023/01/10 05:34:46;;;;;;;10.50;1.60;;;;;;;;;;104789;1257;60444;-44
2023/01/10 05:37:12;;;;;;;13.60;2.00;;;;;;;;;;104700;1251;60511;-45
2023/01/10 05:39:40;;;;;;;8.90;1.50;;;;;;;;;;104983;1253;61929;-45
2023/01/10 05:42:06;;;;;;;12.80;1.50;;;;;;;;;;104897;1253;60556;-44
2023/01/10 05:44:33;;;;;;;9.30;2.00;;;;;;;;;;104699;1254;62016;-46
2023/01/10 05:47:00;;;;;;;11.00;1.90;;;;;;;;;;105026;1253;60433;-42
2023/01/10 05:49:26;;;;;;;12.50;1.90;;;;;;;;;;104946;1257;60541;-43
2023/01/10 05:51:53;;;;;;;15.60;1.40;;;;;;;;;;105072;1259;63007;-47
2023/01/10 05:54:20;;;;;;;13.80;2.00;;;;;;;;;;104941;1257;60561;-45
2023/01/10 05:56:46;;;;;;;18.90;2.60;;;;;;;;;;105029;1251;62023;-44
2023/01/10 05:59:13;;;;;;;10.90;1.80;;;;;;;;;;104931;1253;60701;-44
2023/01/10 06:01:53;;;;;;;11.20;2.50;;;;;;;;;;105404;1254;60535;-46
2023/01/10 06:04:20;;;;;;;7.40;1.90;;;;;;;;;;104976;1255;63245;-46
2023/01/10 06:06:47;;;;;;;11.00;1.90;;;;;;;;;;104876;1253;60532;-45
2023/01/10 06:09:13;;;;;;;8.00;1.70;;;;;;;;;;104683;1258;60846;-45
2023/01/10 06:11:40;;;;;;;8.60;1.80;;;;;;;;;;104989;1258;60531;-46
2023/01/10 06:14:06;;;;;;;12.30;3.80;;;;;;;;;;105047;1256;60526;-44
2023/01/10 06:16:33;;;;;;;11.30;2.20;;;;;;;;;;104938;1257;63436;-45
2023/01/10 06:19:00;;;;;;;10.40;2.00;;;;;;;;;;105062;1254;60523;-47
2023/01/10 06:21:26;;;;;;;9.00;1.90;;;;;;;;;;105125;1254;60570;-46
2023/01/10 06:23:53;;;;;;;10.60;2.20;;;;;;;;;;104963;1253;60638;-47
2023/01/10 06:26:20;;;;;;;10.00;2.50;;;;;;;;;;104947;1259;60435;-45
2023/01/10 06:28:46;;;;;;;11.70;2.70;;;;;;;;;;105028;1254;63008;-47
2023/01/10 06:31:13;;;;;;;18.00;4.50;;;;;;;;;;105111;1257;60390;-43
2023/01/10 06:33:42;;;;;;;13.10;2.40;;;;;;;;;;105323;1259;61634;-45
2023/01/10 06:36:09;;;;;;;21.90;4.00;;;;;;;;;;105882;1257;60449;-44
2023/01/10 06:38:36;;;;;;;10.00;2.80;;;;;;;;;;105095;1253;60505;-46
2023/01/10 06:41:11;;;;;;;14.50;1.90;;;;;;;;;;104963;1254;61906;-45
2023/01/10 06:43:40;;;;;;;16.90;3.80;;;;;;;;;;105990;1256;60587;-44
2023/01/10 06:46:08;;;;;;;17.50;3.20;;;;;;;;;;104878;1252;62009;-47
2023/01/10 06:48:36;;;;;;;17.30;3.60;;;;;;;;;;105073;1256;60460;-46
2023/01/10 06:51:05;;;;;;;10.30;2.40;;;;;;;;;;104984;1254;60508;-44
2023/01/10 06:53:32;;;;;;;6.90;1.70;;;;;;;;;;104941;1254;63202;-44
2023/01/10 06:55:59;;;;;;;13.60;3.10;;;;;;;;;;104835;1259;60314;-44
2023/01/10 06:58:25;;;;;;;11.40;3.20;;;;;;;;;;104866;1253;60680;-46
2023/01/10 07:00:52;;;;;;;5.80;1.90;;;;;;;;;;104870;1254;60603;-45
2023/01/10 07:03:19;;;;;;;10.30;2.60;;;;;;;;;;105406;1254;60747;-44
2023/01/10 07:05:46;;;;;;;17.40;3.10;;;;;;;;;;104851;1254;63196;-46
2023/01/10 07:08:12;;;;;;;8.10;2.20;;;;;;;;;;104807;1254;61191;-47
2023/01/10 07:10:40;;;;;;;18.10;3.30;;;;;;;;;;104965;1258;60625;-44
2023/01/10 07:13:07;;;;;;;16.80;2.90;;;;;;;;;;105024;1253;60447;-45
2023/01/10 07:15:33;;;;;;;8.90;2.80;;;;;;;;;;105230;1258;60360;-45
2023/01/10 07:18:00;;;;;;;13.00;2.30;;;;;;;;;;104969;1254;62027;-44
2023/01/10 07:20:27;;;;;;;10.80;1.90;;;;;;;;;;105012;1257;60512;-45
2023/01/10 07:22:54;;;;;;;5.60;1.80;;;;;;;;;;105015;1254;61887;-44
2023/01/10 07:25:22;;;;;;;6.00;1.80;;;;;;;;;;104925;1253;61055;-45
2023/01/10 07:27:48;;;;;;;6.10;2.10;;;;;;;;;;104871;1253;60483;-46
2023/01/10 07:30:15;;;;;;;12.40;2.20;;;;;;;;;;104985;1257;63364;-48
2023/01/10 07:32:42;;;;;;;9.60;2.20;;;;;;;;;;105143;1254;60465;-44
2023/01/10 07:35:08;;;;;;;8.70;2.60;;;;;;;;;;105180;1257;61711;-45
2023/01/10 07:37:35;;;;;;;6.60;2.20;;;;;;;;;;105083;1257;60411;-46
2023/01/10 07:40:02;;;;;;;5.70;2.60;;;;;;;;;;104734;1254;60425;-45
2023/01/10 07:42:28;;;;;;;8.80;2.00;;;;;;;;;;104942;1259;63257;-46
2023/01/10 07:44:55;;;;;;;7.60;2.40;;;;;;;;;;104931;1258;60965;-45
2023/01/10 07:47:22;;;;;;;10.20;3.80;;;;;;;;;;105085;1254;61687;-43
2023/01/10 07:49:48;;;;;;;15.30;2.30;;;;;;;;;;105083;1254;60525;-43
2023/01/10 07:52:15;;;;;;;5.30;1.80;;;;;;;;;;104894;1254;60540;-45
2023/01/10 07:56:04;;;;;;;8.60;2.20;;;;;;;;;;101894;1289;600271;-41
2023/01/10 07:58:31;;;;;;;9.70;2.70;;;;;;;;;;104487;1269;59052;-42
2023/01/10 08:00:59;;;;;;;7.70;1.90;;;;;;;;;;104670;1269;58950;-42
2023/01/10 08:03:25;;;;;;;10.10;2.20;;;;;;;;;;104595;1263;61928;-44
2023/01/10 08:05:59;;;;;;;7.50;2.80;;;;;;;;;;104430;1264;59126;-46
2023/01/10 08:08:25;;;;;;;13.90;2.80;;;;;;;;;;104444;1263;62048;-44
2023/01/10 08:10:52;;;;;;;9.00;2.70;;;;;;;;;;104608;1261;151766;-47
2023/01/10 08:13:19;;;;;;;12.50;2.70;;;;;;;;;;104635;1266;58940;-43
2023/01/10 08:15:48;;;;;;;6.00;2.50;;;;;;;;;;105200;1255;60153;-46
2023/01/10 08:18:16;;;;;;;10.30;2.50;;;;;;;;;;105647;1256;59077;-47
2023/01/10 08:20:42;;;;;;;9.00;2.40;;;;;;;;;;105130;1251;60546;-45
2023/01/10 08:23:09;;;;;;;10.30;2.50;;;;;;;;;;105325;1254;59759;-45
2023/01/10 08:25:35;;;;;;;13.30;2.90;;;;;;;;;;105092;1251;59691;-43
2023/01/10 08:28:05;;;;;;;6.90;2.70;;;;;;;;;;105429;1257;62247;-48
2023/01/10 08:30:31;;;;;;;9.70;3.30;;;;;;;;;;105835;1255;59703;-44
2023/01/10 08:33:00;;;;;;;9.20;2.30;;;;;;;;;;105327;1251;61799;-42
2023/01/10 08:35:27;;;;;;;5.70;1.90;;;;;;;;;;105634;1251;59712;-46
2023/01/10 08:37:57;;;;;;;6.30;2.50;;;;;;;;;;105461;1256;59627;-46
2023/01/10 08:40:23;;;;;;;12.10;3.10;;;;;;;;;;105460;1251;61196;-44
2023/01/10 08:43:00;;;;;;;6.50;1.90;;;;;;;;;;105242;1257;59841;-44
2023/01/10 08:45:27;;;;;;;10.60;3.50;;;;;;;;;;105314;1251;61829;-42
2023/01/10 08:47:54;;;;;;;15.40;3.70;;;;;;;;;;104900;1256;60915;-47
2023/01/10 08:50:20;;;;;;;9.10;3.70;;;;;;;;;;105186;1253;59617;-44
2023/01/10 08:52:47;;;;;;;6.90;2.40;;;;;;;;;;105223;1257;62850;-43
2023/01/10 08:55:14;;;;;;;10.10;2.90;;;;;;;;;;105268;1251;59717;-43
2023/01/10 08:57:40;;;;;;;15.20;4.90;;;;;;;;;;105311;1254;61922;-43
2023/01/10 09:00:07;;;;;;;17.50;5.40;;;;;;;;;;105187;1257;59614;-44
2023/01/10 09:02:34;;;;;;;5.80;2.40;;;;;;;;;;105011;1256;59727;-43
2023/01/10 09:05:01;;;;;;;11.00;3.90;;;;;;;;;;105239;1251;62388;-45
2023/01/10 09:07:28;;;;;;;9.30;3.50;;;;;;;;;;106034;1255;59553;-47
2023/01/10 09:09:54;;;;;;;10.80;3.70;;;;;;;;;;104990;1251;60405;-45
2023/01/10 09:15:07;;;;;;;14.10;3.50;;;;;;;;;;105229;1256;59928;-47
2023/01/10 09:17:33;;;;;;;13.40;3.90;;;;;;;;;;105206;1255;60983;-46
2023/01/10 09:20:04;;;;;;;13.10;4.00;;;;;;;;;;105302;1257;59689;-43
2023/01/10 09:22:31;;;;;;;9.90;3.30;;;;;;;;;;105343;1260;60836;-46
2023/01/10 09:24:58;;;;;;;12.10;3.30;;;;;;;;;;105180;1251;59585;-44
2023/01/10 09:27:25;;;;;;;13.60;3.40;;;;;;;;;;109313;1251;59220;-46
2023/01/10 09:29:51;;;;;;;9.70;2.70;;;;;;;;;;109328;1251;61271;-46
2023/01/10 09:32:18;;;;;;;9.40;3.20;;;;;;;;;;109381;1251;57516;-46
2023/01/10 09:34:45;;;;;;;10.10;3.40;;;;;;;;;;109362;1251;60535;-45
2023/01/10 09:37:12;;;;;;;13.20;3.20;;;;;;;;;;109384;1251;58189;-45
2023/01/10 09:39:38;;;;;;;9.60;2.90;;;;;;;;;;109418;1251;59304;-45
2023/01/10 09:42:05;;;;;;;13.90;3.40;;;;;;;;;;109403;1251;61241;-46
2023/01/10 09:44:38;;;;;;;15.20;3.80;;;;;;;;;;109445;1251;57409;-45
2023/01/10 09:47:23;;;;;;;9.60;2.40;;;;;;;;;;109349;1256;60883;-45
2023/01/10 09:49:56;;;;;;;8.40;2.00;;;;;;;;;;109308;1256;57622;-45
2023/01/10 09:52:25;;;;;;;7.20;1.60;;;;;;;;;;109335;1251;57569;-45
2023/01/10 09:54:52;;;;;;;18.60;3.10;;;;;;;;;;106183;1254;62947;-44
2023/01/10 09:57:19;;;;;;;10.10;2.70;;;;;;;;;;105220;1256;59752;-44
2023/01/10 09:59:49;;;;;;;7.60;3.00;;;;;;;;;;105408;1254;62039;-45
2023/01/10 10:02:19;;;;;;;10.60;2.80;;;;;;;;;;109379;1251;57668;-46
2023/01/10 10:04:51;;;;;;;13.70;2.60;;;;;;;;;;107561;1257;59810;-46
2023/01/10 10:07:18;;;;;;;13.80;3.50;;;;;;;;;;105041;1251;61024;-45
2023/01/10 10:09:45;;;;;;;8.70;2.70;;;;;;;;;;105333;1257;59634;-45
2023/01/10 10:12:17;;;;;;;17.30;2.30;;;;;;;;;;105359;1257;60654;-47
2023/01/10 10:14:56;;;;;;;9.00;2.30;;;;;;;;;;105082;1253;59615;-46
2023/01/10 10:17:26;;;;;;;18.60;3.60;;;;;;;;;;104857;1251;59853;-44
2023/01/10 10:20:11;;;;;;;17.60;4.10;;;;;;;;;;109281;1251;62476;-47
2023/01/10 10:22:38;;;;;;;14.70;2.90;;;;;;;;;;109322;1251;58376;-46
2023/01/10 10:25:13;;;;;;;16.30;2.40;;;;;;;;;;109161;1257;61900;-46
2023/01/10 10:27:42;;;;;;;7.50;2.10;;;;;;;;;;109120;1251;57698;-46
2023/01/10 10:30:09;;;;;;;9.00;2.00;;;;;;;;;;109188;1256;57755;-46
2023/01/10 10:32:45;;;;;;;13.60;2.90;;;;;;;;;;109369;1254;61428;-47
2023/01/10 10:35:14;;;;;;;12.10;2.20;;;;;;;;;;109285;1251;57755;-46
2023/01/10 10:39:56;;;;;;;8.40;1.80;;;;;;;;;;101837;1289;600548;-43
2023/01/10 10:42:27;;;;;;;11.00;1.70;;;;;;;;;;108440;1264;57006;-46
2023/01/10 10:44:59;;;;;;;15.70;3.10;;;;;;;;;;108551;1262;57256;-46
2023/01/10 10:47:27;;;;;;;7.90;2.00;;;;;;;;;;108522;1263;61405;-45
2023/01/10 10:50:13;;;;;;;5.10;1.30;;;;;;;;;;108569;1264;57322;-45
2023/01/10 10:52:40;;;;;;;11.80;2.10;;;;;;;;;;106904;1263;154627;-46
2023/01/10 10:55:11;;;;;;;12.40;2.90;;;;;;;;;;104714;1264;58997;-47
2023/01/10 10:57:37;;;;;;;16.10;2.50;;;;;;;;;;105100;1261;58946;-45
2023/01/10 11:00:25;;;;;;;9.10;1.90;;;;;;;;;;105110;1260;61693;-45
2023/01/10 11:02:54;;;;;;;12.60;1.50;;;;;;;;;;104764;1261;59109;-45
2023/01/10 11:05:25;;;;;;;15.00;2.80;;;;;;;;;;104692;1266;61861;-45
2023/01/10 11:07:52;;;;;;;10.70;2.20;;;;;;;;;;104699;1266;59678;-45
2023/01/10 11:12:49;;;;;;;13.20;2.40;;;;;;;;;;104748;1262;61069;-45
2023/01/10 11:15:46;;;;;;;7.60;1.90;;;;;;;;;;105178;1260;59628;-45
2023/01/10 11:18:16;;;;;;;12.70;2.90;;;;;;;;;;105113;1254;62920;-45
2023/01/10 11:21:02;;;;;;;9.80;1.60;;;;;;;;;;105249;1259;59951;-44
2023/01/10 11:23:32;;;;;;;11.60;1.70;;;;;;;;;;105170;1253;59723;-46
2023/01/10 11:25:59;;;;;;;10.30;2.30;;;;;;;;;;105164;1254;61371;-46
2023/01/10 11:28:27;;;;;;;14.80;2.40;;;;;;;;;;105192;1254;59752;-46
2023/01/10 11:30:54;;;;;;;13.70;2.40;;;;;;;;;;106387;1257;63188;-46
2023/01/10 11:33:22;;;;;;;12.80;2.70;;;;;;;;;;105089;1254;59707;-46
2023/01/10 11:36:02;;;;;;;6.50;2.00;;;;;;;;;;105102;1253;59771;-44
2023/01/10 11:38:29;;;;;;;15.60;2.00;;;;;;;;;;106068;1256;61422;-45
2023/01/10 11:41:00;;;;;;;6.70;2.10;;;;;;;;;;105214;1254;58994;-44
2023/01/10 11:43:37;;;;;;;12.80;2.20;;;;;;;;;;105268;1259;60941;-45
2023/01/10 11:46:04;;;;;;;8.60;2.20;;;;;;;;;;105093;1255;60292;-43
2023/01/10 11:48:44;;;;;;;8.90;1.60;;;;;;;;;;105339;1257;59585;-45
2023/01/10 11:51:32;;;;;;;11.30;1.60;;;;;;;;;;105092;1260;62478;-45
2023/01/10 11:54:25;;;;;;;13.50;2.20;;;;;;;;;;105186;1253;59652;-44
2023/01/10 11:56:56;;;;;;;15.90;2.40;;;;;;;;;;105690;1260;60764;-45
2023/01/10 11:59:23;;;;;;;11.70;1.80;;;;;;;;;;105127;1260;59710;-44
2023/01/10 12:02:13;;;;;;;12.20;1.70;;;;;;;;;;105112;1254;59727;-46
2023/01/10 12:04:40;;;;;;;11.40;1.90;;;;;;;;;;105033;1254;62579;-46
2023/01/10 12:07:07;;;;;;;17.20;1.70;;;;;;;;;;105257;1254;59605;-45
2023/01/10 12:09:35;;;;;;;8.30;1.40;;;;;;;;;;105125;1254;61745;-44
2023/01/10 12:12:03;;;;;;;10.40;1.20;;;;;;;;;;105120;1256;59879;-43
2023/01/10 12:14:29;;;;;;;8.60;1.50;;;;;;;;;;105049;1254;59628;-44
2023/01/10 12:16:59;;;;;;;10.60;1.40;;;;;;;;;;104968;1254;62739;-45
2023/01/10 12:19:27;;;;;;;15.00;2.10;;;;;;;;;;104563;1257;59534;-44
2023/01/10 12:21:54;;;;;;;12.30;1.40;;;;;;;;;;104935;1254;61872;-44
2023/01/10 12:24:21;;;;;;;3.30;1.10;;;;;;;;;;109190;1253;57599;-47
2023/01/10 12:26:50;;;;;;;4.20;1.50;;;;;;;;;;109202;1254;57514;-47
2023/01/10 12:29:20;;;;;;;11.60;1.50;;;;;;;;;;109088;1253;61240;-47
2023/01/10 12:31:47;;;;;;;9.70;1.40;;;;;;;;;;109049;1254;57501;-47
2023/01/10 12:34:15;;;;;;;15.00;1.20;;;;;;;;;;109068;1254;60765;-47
2023/01/10 12:36:50;;;;;;;8.80;1.30;;;;;;;;;;109074;1254;57901;-47
2023/01/10 12:39:21;;;;;;;14.40;1.50;;;;;;;;;;108950;1255;57690;-47
2023/01/10 12:44:37;;;;;;;8.80;1.50;;;;;;;;;;105149;1260;59612;-46
2023/01/10 12:47:12;;;;;;;11.20;1.20;;;;;;;;;;104905;1260;60486;-45
2023/01/10 12:49:55;;;;;;;6.00;2.10;;;;;;;;;;105011;1257;59799;-46
2023/01/10 12:52:31;;;;;;;8.60;1.30;;;;;;;;;;109080;1256;57620;-47
2023/01/10 12:54:57;;;;;;;10.10;1.30;;;;;;;;;;107090;1255;62503;-46
2023/01/10 12:57:26;;;;;;;11.90;1.70;;;;;;;;;;104983;1257;59662;-44
2023/01/10 12:59:54;;;;;;;6.40;1.20;;;;;;;;;;107194;1256;60577;-45
2023/01/10 13:02:21;;;;;;;14.10;1.40;;;;;;;;;;104981;1255;59564;-44
2023/01/10 13:04:49;;;;;;;7.20;1.20;;;;;;;;;;105173;1260;59633;-47
2023/01/10 13:07:16;;;;;;;8.90;1.70;;;;;;;;;;105547;1255;62442;-45
2023/01/10 13:09:43;;;;;;;9.40;1.90;;;;;;;;;;104912;1256;59717;-46
2023/01/10 13:12:10;;;;;;;15.30;1.70;;;;;;;;;;104964;1256;62462;-45
2023/01/10 13:14:38;;;;;;;8.10;1.60;;;;;;;;;;105087;1257;59713;-45
2023/01/10 13:17:23;;;;;;;10.90;1.40;;;;;;;;;;105153;1257;59640;-45
2023/01/10 13:20:10;;;;;;;7.70;2.30;;;;;;;;;;105059;1256;61314;-44
2023/01/10 13:22:37;;;;;;;7.00;1.20;;;;;;;;;;105024;1257;59730;-45
2023/01/10 13:25:04;;;;;;;9.50;1.30;;;;;;;;;;104913;1261;62023;-45
2023/01/10 13:27:31;;;;;;;12.90;1.80;;;;;;;;;;105063;1256;59634;-46
2023/01/10 13:29:58;;;;;;;3.20;1.20;;;;;;;;;;105040;1260;59699;-46
2023/01/10 13:32:28;;;;;;;5.40;1.30;;;;;;;;;;105157;1255;61461;-45
2023/01/10 13:34:55;;;;;;;10.70;1.60;;;;;;;;;;105113;1255;60908;-46
2023/01/10 13:37:22;;;;;;;9.40;1.20;;;;;;;;;;105004;1257;60775;-45
2023/01/10 13:39:53;;;;;;;8.40;1.20;;;;;;;;;;105194;1260;59644;-47
2023/01/10 13:45:11;;;;;;;12.60;1.30;;;;;;;;;;105122;1255;61643;-46
2023/01/10 13:47:38;;;;;;;11.90;1.00;;;;;;;;;;105482;1254;59778;-45
2023/01/10 13:50:35;;;;;;;6.70;1.30;;;;;;;;;;105106;1260;61771;-46
2023/01/10 13:53:11;;;;;;;5.60;1.20;;;;;;;;;;105100;1257;59742;-47
2023/01/10 13:55:37;;;;;;;13.40;1.70;;;;;;;;;;104850;1256;59683;-46
2023/01/10 13:58:18;;;;;;;10.20;1.50;;;;;;;;;;104875;1255;61357;-46
2023/01/10 14:03:44;;;;;;;4.60;1.10;;;;;;;;;;105928;1259;60771;-46
2023/01/10 14:06:12;;;;;;;;;;;;;;;;;;104980;1257;59695;-46
2023/01/10 14:08:39;;;;;;;8.60;1.80;;;;;;;;;;105113;1257;59698;-46
2023/01/10 14:11:06;;;;;;;6.20;1.20;;;;;;;;;;105125;1255;63665;-47
2023/01/10 14:13:33;;;;;;;8.90;1.40;;;;;;;;;;104833;1256;59541;-45
2023/01/10 14:15:59;;;;;;;4.30;1.10;;;;;;;;;;105036;1261;60519;-47
2023/01/10 14:18:26;;;;;;;5.40;1.20;;;;;;;;;;104997;1259;59740;-46
2023/01/10 14:21:03;;;;;;;10.20;1.40;;;;;;;;;;104958;1257;59662;-45
2023/01/10 14:23:30;;;;;;;6.80;1.10;;;;;;;;;;104975;1260;62669;-46
2023/01/10 14:25:57;;;;;;;7.60;1.30;;;;;;;;;;106038;1257;59024;-46
2023/01/10 14:28:24;;;;;;;9.80;1.90;;;;;;;;;;105027;1257;60575;-44
2023/01/10 14:31:14;;;;;;;7.80;2.20;;;;;;;;;;105278;1260;59742;-45
2023/01/10 14:33:42;;;;;;;4.00;1.10;;;;;;;;;;105083;1261;59813;-47
2023/01/10 14:36:12;;;;;;;6.20;1.40;;;;;;;;;;105202;1257;61359;-45
2023/01/10 14:38:39;;;;;;;6.70;1.00;;;;;;;;;;105274;1259;59787;-44
2023/01/10 14:41:09;;;;;;;11.50;1.10;;;;;;;;;;105091;1254;62026;-45
2023/01/10 14:43:41;;;;;;;5.80;1.20;;;;;;;;;;105025;1254;59678;-46
2023/01/10 14:46:12;;;;;;;4.10;0.80;;;;;;;;;;105219;1257;59724;-44
2023/01/10 14:48:40;;;;;;;11.80;1.20;;;;;;;;;;105330;1255;61272;-43
2023/01/10 14:51:07;;;;;;;7.40;1.30;;;;;;;;;;105106;1254;59628;-45
2023/01/10 14:53:33;;;;;;;4.20;1.00;;;;;;;;;;105157;1257;60906;-46
2023/01/10 14:56:00;;;;;;;6.90;1.30;;;;;;;;;;105085;1260;60601;-45
2023/01/10 14:58:27;;;;;;;8.20;1.20;;;;;;;;;;105076;1259;60398;-45
2023/01/10 15:00:53;;;;;;;5.90;1.10;;;;;;;;;;105026;1254;63003;-46
2023/01/10 15:03:21;;;;;;;7.30;1.20;;;;;;;;;;105116;1260;60603;-45